x

Northwestern Hawaii Two - 190nm Nw Of Kauai Is, Hi (51101) Wave Buoy

3:50am - Sat 28th Mar 2015 All times are HST. -10 hours from GMT.

  • Sig Wave height 4.9ft
  • Swell Direction
  • Peak Period 8s
  • Average Period 6s
  • Wind
    13mph, 16mph gusts
  • Sea Temp 73°f
  • Air Temp 72°f
  • Sea Pressure 1020.9mb
  • Northwestern Hawaii Two - 190nm Nw Of Kauai Is, Hi
  • Northwestern Hawaii Two - 190nm Nw Of Kauai Is, Hi

More Historic Weather Station data

Upgrade to MSW Pro to gain access to the past 30 days of data for over 8000 Wavebouys and Weather Stations around the globe.

Join Pro

Comparision Forecast

View Surf forecast
   
Sat 03/28 3:50am 5ft 8s 6s 13 16 mph 1020.9mb 73f 72f
2:50am 4.5ft 8s 6s 13 16 mph 1021.3mb 73f 72f
1:50am 5ft 8s 6s 11 13 mph 1021.7mb 73f 72f
12:50am 5ft 8s 6s 11 13 mph 1022.5mb 73f 72f
Fri 03/27 11:50pm 5ft 8s 6s 13 16 mph 1022.7mb 73f 73f
10:50pm 5ft 8s 6s 13 16 mph 1022.9mb 73f 73f
9:50pm 5ft 10s 6s 11 13 mph 1022.8mb 73f 73f
8:50pm 5ft 9s 6s 11 13 mph 1022.2mb 73f 73f
7:50pm 5ft 9s 6s 9 11 mph 1021.5mb 73f 73f
6:50pm 5ft 10s 6s 9 11 mph 1021.1mb 73f 73f
5:50pm 5ft 10s 6s 11
mph
1020.6mb 73f 73f
4:50pm 5ft 10s 6s 11 13 mph 1020.5mb 73f 73f
3:50pm 5ft 9s 6s 11 13 mph 1020.3mb 73f 73f
2:50pm 5ft 10s 7s 11 13 mph 1020.6mb 73f 73f
1:50pm 5ft 9s 6s 11 13 mph 1021.2mb 73f 73f
12:50pm 5.5ft 10s 6s 11
mph
1022mb 73f 72f
11:50am 5.5ft 10s 6s 11 13 mph 1022.7mb 73f 72f
10:50am 6ft 10s 6s 13 16 mph 1023mb 72f 71f
9:50am 5.5ft 10s 6s 16 20 mph 1022.8mb 72f 71f
8:50am 6ft 10s 6s 18 20 mph 1022.6mb 72f 71f
7:50am 5.5ft 10s 6s 16 20 mph 1022.2mb 72f 71f
6:50am 5.5ft 11s 6s 16 18 mph 1022.1mb 72f 70f
5:50am 6ft 10s 7s 13 18 mph 1021.8mb 72f 70f
4:50am 6ft 11s 7s 13 18 mph 1021.5mb 72f 70f
3:50am 6ft 10s 7s 13 16 mph 1021.7mb 72f 70f
2:50am 6ft 10s 7s 11 16 mph 1022.4mb 72f 70f
1:50am 6.5ft 11s 7s 11 16 mph 1022.7mb 72f 70f
12:50am 7ft 11s 7s 13 16 mph 1023.6mb 72f 70f
Thu 03/26 11:50pm 7ft 11s 7s 16 18 mph 1023.7mb 72f 70f
10:50pm 7ft 11s 7s 13 18 mph 1023.8mb 73f 70f
9:50pm 7ft 11s 7s 16 20 mph 1023.8mb 73f 70f
8:50pm 8ft 10s 7s 16 20 mph 1023.5mb 73f 70f
7:50pm 7.5ft 10s 7s 16 18 mph 1023mb 73f 70f
6:50pm 8.5ft 10s 7s 16 20 mph 1022.1mb 73f 70f
5:50pm 7.5ft 11s 7s 16 20 mph 1021.7mb 73f 70f
4:50pm 7.5ft 11s 7s 16 18 mph 1021.5mb 73f 70f
3:50pm 7ft 11s 7s 16 18 mph 1021.6mb 73f 70f
2:50pm 7ft 11s 7s 16 20 mph 1022mb 73f 70f
1:50pm 7ft 11s 7s 16 20 mph 1022.5mb 73f 70f
12:50pm 7ft 11s 7s 18 20 mph 1023.1mb 73f 69f
11:50am 7.5ft 11s 7s 18 22 mph 1023.5mb 73f 69f
10:50am 7.5ft 11s 7s 18 22 mph 1023.6mb 73f 69f
9:50am 8ft 11s 7s 16 20 mph 1023.8mb 73f 69f
8:50am 8ft 11s 7s 16 22 mph 1023.7mb 73f 69f
7:50am 8ft 11s 7s 16 22 mph 1023.1mb 73f 69f
6:50am 7.5ft 11s 7s 18 22 mph 1022.6mb 73f 67f
5:50am 8ft 12s 7s 16 20 mph 1022.2mb 73f 67f
4:50am 8ft 11s 7s 18 22 mph 1022.3mb 73f 67f
3:50am 8ft 12s 7s 20 25 mph 1022.4mb 73f 66f
2:50am 9ft 11s 7s 18 22 mph 1022.9mb 73f 66f
1:50am 7.5ft 11s 7s 20 25 mph 1023.4mb 73f 66f
12:50am 9.5ft 11s 7s 18 22 mph 1023.7mb 73f 67f
Wed 03/25 11:50pm 9ft 11s 7s 22 27 mph 1023.7mb 73f 67f
10:50pm 9ft 11s 7s 18 22 mph 1024.3mb 73f 66f
9:50pm 9ft 10s 7s 20 25 mph 1024.4mb 73f 67f
8:50pm 10ft 11s 8s 20 27 mph 1023.7mb 73f 67f
7:50pm 9.5ft 11s 7s 18 22 mph 1023mb 73f 67f
6:50pm 10.5ft 11s 8s 20 25 mph 1022.3mb 73f 67f
5:50pm 9ft 10s 7s 20 25 mph 1021.5mb 73f 68f
4:50pm 9ft 11s 7s 18 22 mph 1021.6mb 73f 68f
3:50pm 8ft 10s 7s 18 22 mph 1021.5mb 73f 67f
2:50pm 8ft 10s 7s 16 20 mph 1021.7mb 73f 67f
1:50pm 7.5ft 7s 6s 18 22 mph 1022.6mb 73f 67f
12:50pm 7.5ft 10s 6s 18 25 mph 1023.1mb 73f 67f
11:50am 7ft 8s 6s 20 25 mph 1023.5mb 73f 67f
10:50am 7ft 8s 6s 20 25 mph 1023.8mb 73f 67f
9:50am 7ft 8s 6s 20 27 mph 1023.7mb 73f 67f
8:50am 7ft 15s 6s 18 22 mph 1023mb 73f 67f
7:50am 6.5ft 8s 6s 18 25 mph 1022.5mb 73f 66f
6:50am 7ft 7s 6s 18 25 mph 1021.9mb 73f 66f
5:50am 7ft 7s 6s 18 22 mph 1021.5mb 73f 66f
4:50am 7ft 7s 6s 22 29 mph 1020.7mb 73f 66f
3:50am 7ft 7s 6s 22 27 mph 1020.7mb 73f 66f
2:50am 6.5ft 6s 6s 22 29 mph 1020.8mb 73f 66f
1:50am 7.5ft 7s 6s 20 25 mph 1021.1mb 73f 66f
12:50am 7ft 15s 6s 22 25 mph 1021.4mb 73f 66f
Tue 03/24 11:50pm 6.5ft 7s 5s 22 27 mph 1021.3mb 73f 67f
10:50pm 6.5ft 6s 5s 22 27 mph 1021.4mb 73f 67f
9:50pm 6ft 15s 6s 22 25 mph 1021.1mb 73f 68f
8:50pm 6.5ft 6s 5s 22 27 mph 1020.4mb 73f 68f
7:50pm 6ft 16s 6s 22 25 mph 1019.5mb 74f 69f
6:50pm 6ft 16s 6s 22 27 mph 1018.6mb 74f 67f
5:50pm 5.5ft 16s 5s 22 27 mph 1017.9mb 74f 68f
4:50pm 5.5ft 16s 6s 25 29 mph 1017.4mb 74f 69f
3:50pm 5ft 16s 7s 22 27 mph 1017.3mb 74f 69f